sensor_id;sensor_type;location;lat;lon;timestamp;P1;durP1;ratioP1;P2;durP2;ratioP2
77720;SDS011;75573;44.482;0.080;2024-03-23T01:03:14;7.43;;;2.17;;
77720;SDS011;75573;44.482;0.080;2024-03-23T01:18:46;3.27;;;1.47;;
77720;SDS011;75573;44.482;0.080;2024-03-23T01:34:19;6.83;;;1.97;;
77720;SDS011;75573;44.482;0.080;2024-03-23T01:49:51;6.93;;;2.03;;
77720;SDS011;75573;44.482;0.080;2024-03-23T02:20:58;4.33;;;1.93;;
77720;SDS011;75573;44.482;0.080;2024-03-23T02:36:31;7.67;;;1.90;;
77720;SDS011;75573;44.482;0.080;2024-03-23T02:52:05;5.40;;;2.17;;
77720;SDS011;75573;44.482;0.080;2024-03-23T03:07:37;4.40;;;1.90;;
77720;SDS011;75573;44.482;0.080;2024-03-23T03:23:10;9.23;;;1.93;;
77720;SDS011;75573;44.482;0.080;2024-03-23T03:38:42;5.03;;;1.63;;
77720;SDS011;75573;44.482;0.080;2024-03-23T03:54:15;3.93;;;0.70;;
77720;SDS011;75573;44.482;0.080;2024-03-23T04:09:47;7.23;;;0.83;;
77720;SDS011;75573;44.482;0.080;2024-03-23T04:25:19;4.07;;;0.73;;
77720;SDS011;75573;44.482;0.080;2024-03-23T04:40:54;4.93;;;0.73;;
77720;SDS011;75573;44.482;0.080;2024-03-23T04:56:24;2.63;;;0.60;;
77720;SDS011;75573;44.482;0.080;2024-03-23T05:11:56;4.37;;;0.90;;
77720;SDS011;75573;44.482;0.080;2024-03-23T05:27:29;5.83;;;0.80;;
77720;SDS011;75573;44.482;0.080;2024-03-23T05:43:01;7.93;;;0.90;;
77720;SDS011;75573;44.482;0.080;2024-03-23T05:58:32;4.10;;;0.70;;
77720;SDS011;75573;44.482;0.080;2024-03-23T06:14:04;5.73;;;0.80;;
77720;SDS011;75573;44.482;0.080;2024-03-23T06:29:37;8.33;;;1.00;;
77720;SDS011;75573;44.482;0.080;2024-03-23T06:45:11;6.67;;;0.80;;
77720;SDS011;75573;44.482;0.080;2024-03-23T07:00:44;9.60;;;1.20;;
77720;SDS011;75573;44.482;0.080;2024-03-23T07:16:17;7.70;;;0.80;;
77720;SDS011;75573;44.482;0.080;2024-03-23T07:31:54;6.97;;;1.00;;
77720;SDS011;75573;44.482;0.080;2024-03-23T07:47:30;5.83;;;0.97;;
77720;SDS011;75573;44.482;0.080;2024-03-23T08:03:05;8.63;;;1.43;;
77720;SDS011;75573;44.482;0.080;2024-03-23T08:18:39;7.60;;;1.33;;
77720;SDS011;75573;44.482;0.080;2024-03-23T08:34:12;5.20;;;0.90;;
77720;SDS011;75573;44.482;0.080;2024-03-23T08:49:44;6.90;;;1.50;;
77720;SDS011;75573;44.482;0.080;2024-03-23T09:05:17;3.23;;;0.97;;
77720;SDS011;75573;44.482;0.080;2024-03-23T09:20:48;6.37;;;2.10;;
77720;SDS011;75573;44.482;0.080;2024-03-23T09:36:20;3.70;;;0.73;;
77720;SDS011;75573;44.482;0.080;2024-03-23T09:51:53;3.97;;;0.67;;
77720;SDS011;75573;44.482;0.080;2024-03-23T10:07:25;4.73;;;0.80;;
77720;SDS011;75573;44.482;0.080;2024-03-23T10:22:57;4.67;;;1.10;;
77720;SDS011;75573;44.482;0.080;2024-03-23T10:38:26;4.67;;;1.10;;
77720;SDS011;75573;44.482;0.080;2024-03-23T10:54:04;8.83;;;1.30;;
77720;SDS011;75573;44.482;0.080;2024-03-23T11:09:41;4.03;;;0.80;;
77720;SDS011;75573;44.482;0.080;2024-03-23T11:25:14;6.27;;;1.10;;
77720;SDS011;75573;44.482;0.080;2024-03-23T11:40:41;5.80;;;1.10;;
77720;SDS011;75573;44.482;0.080;2024-03-23T11:56:15;8.43;;;0.90;;
77720;SDS011;75573;44.482;0.080;2024-03-23T12:11:46;2.80;;;0.70;;
77720;SDS011;75573;44.482;0.080;2024-03-23T12:27:20;4.53;;;0.70;;
77720;SDS011;75573;44.482;0.080;2024-03-23T12:42:52;8.87;;;0.90;;
77720;SDS011;75573;44.482;0.080;2024-03-23T12:58:23;5.10;;;0.83;;
77720;SDS011;75573;44.482;0.080;2024-03-23T13:13:55;3.53;;;0.70;;
77720;SDS011;75573;44.482;0.080;2024-03-23T13:29:26;3.27;;;1.03;;
77720;SDS011;75573;44.482;0.080;2024-03-23T13:44:57;4.50;;;1.30;;
77720;SDS011;75573;44.482;0.080;2024-03-23T14:00:30;5.60;;;1.13;;
77720;SDS011;75573;44.482;0.080;2024-03-23T14:16:02;6.13;;;0.90;;
77720;SDS011;75573;44.482;0.080;2024-03-23T14:31:35;6.23;;;1.10;;
77720;SDS011;75573;44.482;0.080;2024-03-23T14:47:08;4.80;;;0.90;;
77720;SDS011;75573;44.482;0.080;2024-03-23T15:02:41;6.37;;;1.90;;
77720;SDS011;75573;44.482;0.080;2024-03-23T15:18:15;8.43;;;2.00;;
77720;SDS011;75573;44.482;0.080;2024-03-23T15:33:46;4.83;;;1.13;;
77720;SDS011;75573;44.482;0.080;2024-03-23T15:49:17;8.23;;;1.13;;
77720;SDS011;75573;44.482;0.080;2024-03-23T16:04:49;7.33;;;1.43;;
77720;SDS011;75573;44.482;0.080;2024-03-23T16:20:20;4.80;;;0.83;;
77720;SDS011;75573;44.482;0.080;2024-03-23T16:35:56;5.97;;;1.23;;
77720;SDS011;75573;44.482;0.080;2024-03-23T16:51:25;9.47;;;2.70;;
77720;SDS011;75573;44.482;0.080;2024-03-23T17:06:55;5.77;;;2.57;;
77720;SDS011;75573;44.482;0.080;2024-03-23T17:22:29;5.93;;;0.80;;
77720;SDS011;75573;44.482;0.080;2024-03-23T17:38:00;8.27;;;1.13;;
77720;SDS011;75573;44.482;0.080;2024-03-23T17:53:37;5.97;;;1.20;;
77720;SDS011;75573;44.482;0.080;2024-03-23T18:09:03;5.67;;;0.97;;
77720;SDS011;75573;44.482;0.080;2024-03-23T18:24:35;5.73;;;1.20;;
77720;SDS011;75573;44.482;0.080;2024-03-23T18:40:08;12.93;;;2.50;;
77720;SDS011;75573;44.482;0.080;2024-03-23T18:55:39;10.67;;;2.37;;
77720;SDS011;75573;44.482;0.080;2024-03-23T19:11:11;8.07;;;2.67;;
77720;SDS011;75573;44.482;0.080;2024-03-23T19:26:44;7.83;;;1.83;;
77720;SDS011;75573;44.482;0.080;2024-03-23T19:42:16;6.47;;;1.43;;
77720;SDS011;75573;44.482;0.080;2024-03-23T19:57:48;10.80;;;2.00;;
77720;SDS011;75573;44.482;0.080;2024-03-23T20:13:21;8.50;;;2.53;;
77720;SDS011;75573;44.482;0.080;2024-03-23T20:28:54;7.73;;;3.07;;
77720;SDS011;75573;44.482;0.080;2024-03-23T20:44:26;12.70;;;2.67;;
77720;SDS011;75573;44.482;0.080;2024-03-23T20:59:59;6.10;;;2.07;;
77720;SDS011;75573;44.482;0.080;2024-03-23T21:15:32;8.40;;;2.27;;
77720;SDS011;75573;44.482;0.080;2024-03-23T21:31:03;7.27;;;1.60;;
77720;SDS011;75573;44.482;0.080;2024-03-23T21:46:34;5.43;;;1.23;;
77720;SDS011;75573;44.482;0.080;2024-03-23T22:02:08;5.40;;;1.13;;
77720;SDS011;75573;44.482;0.080;2024-03-23T22:17:40;11.57;;;1.20;;
77720;SDS011;75573;44.482;0.080;2024-03-23T22:33:11;8.73;;;1.47;;
77720;SDS011;75573;44.482;0.080;2024-03-23T22:48:44;4.43;;;1.00;;
77720;SDS011;75573;44.482;0.080;2024-03-23T23:04:16;5.77;;;0.80;;
77720;SDS011;75573;44.482;0.080;2024-03-23T23:19:48;4.20;;;0.63;;
77720;SDS011;75573;44.482;0.080;2024-03-23T23:35:21;2.77;;;0.70;;
77720;SDS011;75573;44.482;0.080;2024-03-23T23:50:52;5.20;;;0.63;;
